Time;durP1;ratioP1;P1;durP2;ratioP2;P2;SDS_P1;SDS_P2;PMS_P1;PMS_P2;Temp;Humidity;BMP_temperature;BMP_pressure;BME280_temperature;BME280_humidity;BME280_pressure;Samples;Min_cycle;Max_cycle;Signal;HPM_P1;HPM_P2
2022/11/16 00:01:49;;;;;;;66.60;27.63;;;;;;;6.06;100.00;100173.19;4994459;28;20113;-77
2022/11/16 00:04:14;;;;;;;67.73;27.80;;;;;;;5.97;100.00;100159.03;4989042;28;20034;-76
2022/11/16 00:06:39;;;;;;;79.30;30.53;;;;;;;6.07;100.00;100169.59;4989579;28;20430;-77
2022/11/16 00:09:21;;;;;;;70.75;28.08;;;;;;;6.06;100.00;100157.28;4988238;28;20344;-77
2022/11/16 00:11:54;;;;;;;74.82;28.60;;;;;;;6.06;100.00;100163.44;4988260;28;20031;-77
2022/11/16 00:14:21;;;;;;;73.32;28.45;;;;;;;6.12;100.00;100162.84;4988177;28;20471;-76
2022/11/16 00:16:47;;;;;;;87.28;30.10;;;;;;;6.15;100.00;100167.00;4971040;28;20058;-76
2022/11/16 00:19:12;;;;;;;72.30;28.55;;;;;;;6.09;100.00;100157.03;5002994;28;20120;-76
2022/11/16 00:21:38;;;;;;;88.00;27.67;;;;;;;6.14;100.00;100157.41;4991235;28;20526;-75
2022/11/16 00:24:04;;;;;;;88.45;29.98;;;;;;;6.11;100.00;100131.19;5007252;28;20041;-77
2022/11/16 00:26:30;;;;;;;87.18;33.15;;;;;;;6.22;100.00;100156.66;4990809;28;20026;-77
2022/11/16 00:28:55;;;;;;;76.97;30.38;;;;;;;6.13;100.00;100155.72;5008231;28;20041;-76
2022/11/16 00:31:22;;;;;;;84.87;29.80;;;;;;;6.12;100.00;100146.94;4991118;28;20081;-76
2022/11/16 00:33:48;;;;;;;80.15;28.92;;;;;;;6.24;100.00;100147.56;4990754;28;20030;-77
2022/11/16 00:36:13;;;;;;;;;;;;;;;6.22;100.00;100162.78;5007327;28;20525;-77
2022/11/16 00:38:40;;;;;;;85.28;30.00;;;;;;;6.22;100.00;100159.31;4990283;28;19917;-77
2022/11/16 00:41:07;;;;;;;74.85;28.85;;;;;;;6.20;100.00;100164.75;4995717;28;20038;-75
2022/11/16 00:43:33;;;;;;;80.00;30.25;;;;;;;6.32;100.00;100155.63;4987253;28;20081;-75
2022/11/16 00:45:59;;;;;;;77.55;30.05;;;;;;;6.30;100.00;100165.53;4970867;28;20125;-76
2022/11/16 00:48:24;;;;;;;75.27;29.43;;;;;;;6.22;100.00;100146.88;4986650;28;20030;-76
2022/11/16 00:50:50;;;;;;;81.03;28.48;;;;;;;6.36;100.00;100155.31;4987350;28;20359;-76
2022/11/16 00:53:18;;;;;;;83.68;29.67;;;;;;;6.30;100.00;100159.41;4971244;28;20034;-76
2022/11/16 00:55:44;;;;;;;80.70;30.48;;;;;;;6.23;100.00;100137.97;4994139;28;20938;-76
2022/11/16 00:58:11;;;;;;;73.75;29.35;;;;;;;6.24;100.00;100133.50;4971143;28;20173;-76
2022/11/16 01:00:40;;;;;;;91.93;33.58;;;;;;;6.19;100.00;100146.34;4971609;28;20038;-76
2022/11/16 01:03:05;;;;;;;89.40;32.90;;;;;;;6.25;100.00;100138.66;4988373;28;20030;-76
2022/11/16 01:05:32;;;;;;;90.28;33.20;;;;;;;6.31;100.00;100147.81;4970588;28;20141;-76
2022/11/16 01:07:58;;;;;;;83.63;32.20;;;;;;;6.27;100.00;100115.44;4970608;28;20113;-76
2022/11/16 01:10:26;;;;;;;95.90;35.53;;;;;;;6.31;100.00;100135.38;4988372;28;20483;-76
2022/11/16 01:12:52;;;;;;;89.43;32.58;;;;;;;6.33;100.00;100122.81;4988243;28;20038;-75
2022/11/16 01:15:18;;;;;;;;;;;;;;;6.39;100.00;100125.84;4998832;28;20112;-76
2022/11/16 01:17:44;;;;;;;88.05;30.88;;;;;;;6.43;100.00;100117.44;5007311;28;19925;-76
2022/11/16 01:20:13;;;;;;;77.45;29.33;;;;;;;6.45;100.00;100120.78;4983962;28;20042;-76
2022/11/16 01:22:39;;;;;;;90.35;31.73;;;;;;;6.41;100.00;100115.91;4989934;28;20047;-77
2022/11/16 01:25:06;;;;;;;66.50;26.55;;;;;;;6.38;100.00;100106.47;4988761;28;20499;-76
2022/11/16 01:27:31;;;;;;;76.63;30.85;;;;;;;6.38;100.00;100108.28;4970171;28;20081;-76
2022/11/16 01:29:58;;;;;;;89.13;29.60;;;;;;;6.34;100.00;100100.63;4987019;28;20446;-76
2022/11/16 01:32:24;;;;;;;82.87;30.93;;;;;;;6.34;100.00;100095.34;4986518;28;20034;-76
2022/11/16 01:34:49;;;;;;;78.50;28.55;;;;;;;6.29;100.00;100089.63;4970523;28;20097;-76
2022/11/16 01:37:23;;;;;;;74.47;29.00;;;;;;;6.32;100.00;100094.66;4986257;28;20125;-77
2022/11/16 01:39:49;;;;;;;77.30;29.80;;;;;;;6.31;100.00;100092.97;4970339;28;20137;-76
2022/11/16 01:42:16;;;;;;;;;;;;;;;6.25;100.00;100085.63;4970252;28;20034;-76
2022/11/16 01:44:42;;;;;;;74.03;26.65;;;;;;;6.34;100.00;100087.38;4986438;28;19913;-76
2022/11/16 01:47:14;;;;;;;74.57;27.83;;;;;;;6.33;100.00;100084.88;4985773;28;20054;-76
2022/11/16 01:49:46;;;;;;;71.28;25.85;;;;;;;6.33;100.00;100068.97;4986371;28;20038;-76
2022/11/16 01:52:19;;;;;;;67.30;25.10;;;;;;;6.33;100.00;100061.84;4986086;28;20081;-76
2022/11/16 01:54:48;;;;;;;97.32;25.40;;;;;;;6.38;100.00;100065.84;4996156;28;20037;-76
2022/11/16 01:57:20;;;;;;;66.28;24.10;;;;;;;6.34;100.00;100058.22;4989104;28;20018;-76
2022/11/16 01:59:58;;;;;;;72.68;27.42;;;;;;;6.33;100.00;100053.88;5005251;28;20164;-76
2022/11/16 02:02:27;;;;;;;69.28;26.20;;;;;;;6.25;100.00;100045.88;5005308;28;20145;-76
2022/11/16 02:04:54;;;;;;;73.53;28.55;;;;;;;6.25;100.00;100040.56;5004990;28;20110;-77
2022/11/16 02:11:01;;;;;;;68.03;25.40;;;;;;;6.18;100.00;100050.13;4984402;28;20069;-76
2022/11/16 02:13:50;;;;;;;72.03;27.52;;;;;;;6.17;100.00;100047.59;4985953;28;20843;-76
2022/11/16 02:16:33;;;;;;;73.20;27.08;;;;;;;6.19;100.00;100045.63;5001252;28;20042;-76
2022/11/16 02:19:15;;;;;;;67.60;27.60;;;;;;;6.23;100.00;100042.53;5005338;28;20183;-76
2022/11/16 02:21:50;;;;;;;64.22;26.13;;;;;;;6.10;100.00;100020.88;5005293;28;20033;-76
2022/11/16 02:24:49;;;;;;;67.03;25.13;;;;;;;6.26;100.00;100036.91;5005575;28;20065;-75
2022/11/16 02:27:33;;;;;;;71.55;28.23;;;;;;;6.19;100.00;100030.56;4996067;28;20749;-76
2022/11/16 02:29:58;;;;;;;79.57;29.83;;;;;;;6.18;100.00;100023.59;4995380;28;20030;-76
2022/11/16 02:32:36;;;;;;;80.47;27.52;;;;;;;6.12;100.00;100029.50;4985910;28;20430;-75
2022/11/16 02:35:08;;;;;;;85.22;33.25;;;;;;;6.09;100.00;100017.38;4969590;28;20039;-77
2022/11/16 02:37:37;;;;;;;68.90;28.38;;;;;;;6.07;100.00;100026.47;4985603;28;20093;-77
2022/11/16 02:40:08;;;;;;;68.93;27.23;;;;;;;6.11;100.00;100027.81;4985970;28;20038;-77
2022/11/16 02:42:39;;;;;;;67.32;26.20;;;;;;;6.02;100.00;100015.50;4994118;28;20044;-76
2022/11/16 02:45:07;;;;;;;68.68;26.50;;;;;;;6.05;100.00;100008.06;5005138;28;20565;-77
2022/11/16 02:47:35;;;;;;;71.97;26.05;;;;;;;6.04;100.00;100021.47;5006290;28;20442;-76
2022/11/16 02:50:07;;;;;;;60.05;26.40;;;;;;;6.01;100.00;100016.47;5001084;28;20054;-76
2022/11/16 02:52:35;;;;;;;67.40;26.35;;;;;;;5.95;100.00;100009.09;4969283;28;20088;-77
2022/11/16 02:55:03;;;;;;;64.35;25.05;;;;;;;6.00;100.00;100006.88;4989841;28;20091;-76
2022/11/16 02:57:40;;;;;;;76.38;28.50;;;;;;;5.98;100.00;100006.19;5004787;28;20113;-76
2022/11/16 03:00:17;;;;;;;67.97;27.35;;;;;;;6.03;100.00;100010.03;4991839;28;20030;-76
2022/11/16 03:02:53;;;;;;;62.22;26.75;;;;;;;5.95;100.00;100006.47;4993398;28;20041;-76
2022/11/16 03:05:32;;;;;;;62.78;24.20;;;;;;;5.86;100.00;100003.72;4983115;28;20030;-77
2022/11/16 03:08:30;;;;;;;55.70;22.20;;;;;;;6.02;100.00;100004.91;5004849;28;20038;-75
2022/11/16 03:13:51;;;;;;;52.58;23.48;;;;;;;5.89;100.00;99982.22;4988290;28;20192;-75
2022/11/16 03:16:25;;;;;;;55.95;23.60;;;;;;;5.90;100.00;99991.84;4989283;28;20151;-77
2022/11/16 03:18:54;;;;;;;63.95;26.55;;;;;;;5.82;100.00;99973.19;4988809;28;20027;-77
2022/11/16 03:21:45;;;;;;;63.22;22.85;;;;;;;5.88;100.00;99985.84;4987923;28;20114;-78
2022/11/16 03:24:12;;;;;;;60.72;25.58;;;;;;;5.89;100.00;99984.84;4983067;28;20539;-76
2022/11/16 03:26:49;;;;;;;58.00;24.30;;;;;;;5.99;100.00;99981.34;4988345;28;20062;-76
2022/11/16 03:29:28;;;;;;;59.72;26.38;;;;;;;5.90;100.00;99978.59;4972853;28;20053;-78
2022/11/16 03:32:03;;;;;;;57.15;23.75;;;;;;;5.86;100.00;99966.63;4988039;28;20037;-77
2022/11/16 03:34:34;;;;;;;57.95;23.60;;;;;;;5.78;100.00;99963.88;4984265;28;20062;-76
2022/11/16 03:37:02;;;;;;;62.63;25.30;;;;;;;5.87;100.00;99970.94;4987271;28;20034;-76
2022/11/16 03:39:32;;;;;;;57.25;24.38;;;;;;;5.85;100.00;99975.56;4990885;28;20041;-76
2022/11/16 03:42:01;;;;;;;59.75;24.08;;;;;;;5.86;100.00;99971.09;4989954;28;20040;-77
2022/11/16 03:44:27;;;;;;;67.93;24.60;;;;;;;5.75;100.00;99964.19;4991238;28;20034;-75
2022/11/16 03:46:53;;;;;;;;;;;;;;;5.76;100.00;99965.88;4971130;28;20054;-76
2022/11/16 03:49:22;;;;;;;65.32;26.42;;;;;;;5.79;100.00;99986.75;4986874;28;19963;-76
2022/11/16 03:51:50;;;;;;;55.90;23.02;;;;;;;5.87;100.00;99988.66;4990568;28;20041;-76
2022/11/16 03:54:15;;;;;;;55.33;22.80;;;;;;;5.90;100.00;99991.84;4972292;28;20415;-75
2022/11/16 03:56:41;;;;;;;62.22;25.73;;;;;;;5.80;100.00;99993.69;4987673;28;20034;-76
2022/11/16 03:59:07;;;;;;;58.33;25.17;;;;;;;5.71;100.00;99986.66;4988256;28;20077;-76
2022/11/16 04:01:33;;;;;;;52.95;24.30;;;;;;;5.76;100.00;99992.34;4989202;28;20100;-75
2022/11/16 04:03:59;;;;;;;56.75;23.05;;;;;;;5.69;100.00;99983.34;4971473;28;20073;-75
2022/11/16 04:25:53;;;;;;;58.83;24.88;;;;;;;5.76;100.00;100002.94;4987154;28;20033;-77
2022/11/16 04:28:22;;;;;;;60.75;25.55;;;;;;;5.66;100.00;100004.81;4971534;28;20624;-76
2022/11/16 04:39:18;;;;;;;67.38;27.95;;;;;;;5.57;100.00;100025.09;4991569;28;20030;-76
2022/11/16 04:47:18;;;;;;;81.65;30.33;;;;;;;5.67;100.00;100035.63;4987059;28;20480;-76
2022/11/16 04:49:45;;;;;;;79.32;32.53;;;;;;;5.68;100.00;100037.28;4987404;28;20169;-76
2022/11/16 04:52:10;;;;;;;88.80;33.70;;;;;;;5.65;100.00;100043.72;5000747;28;20133;-75
2022/11/16 04:54:37;;;;;;;82.68;30.05;;;;;;;5.59;100.00;100041.63;5006739;28;20069;-76
2022/11/16 04:57:02;;;;;;;84.70;31.20;;;;;;;5.49;100.00;100049.63;4993991;28;20507;-76
2022/11/16 04:59:28;;;;;;;105.35;36.70;;;;;;;5.45;100.00;100048.25;4970965;28;20038;-75
2022/11/16 05:02:08;;;;;;;96.13;33.57;;;;;;;5.48;100.00;100058.56;4970817;28;20411;-76
2022/11/16 05:04:42;;;;;;;90.07;31.83;;;;;;;5.58;100.00;100066.47;4989732;28;20372;-75
2022/11/16 05:07:10;;;;;;;94.05;32.08;;;;;;;5.64;100.00;100076.47;4992384;28;20053;-77
2022/11/16 05:09:41;;;;;;;88.70;31.92;;;;;;;5.63;100.00;100071.31;4970792;28;20613;-76
2022/11/16 05:12:16;;;;;;;77.25;28.98;;;;;;;5.61;100.00;100062.69;4986741;28;20121;-76
2022/11/16 05:14:44;;;;;;;80.50;29.27;;;;;;;5.70;100.00;100064.47;4970840;28;20070;-76
2022/11/16 05:17:10;;;;;;;75.05;27.95;;;;;;;5.67;100.00;100068.25;4970124;28;20041;-75
2022/11/16 05:22:22;;;;;;;;;;;;;;;5.55;100.00;100061.47;4987270;28;20026;-76
2022/11/16 05:24:48;;;;;;;83.85;30.25;;;;;;;5.61;100.00;100062.69;4986769;28;20155;-76
2022/11/16 05:27:16;;;;;;;82.63;30.23;;;;;;;5.57;100.00;100063.97;4970229;28;20149;-76
2022/11/16 05:29:42;;;;;;;78.28;29.85;;;;;;;5.59;100.00;100065.47;4988084;28;20332;-76
2022/11/16 05:32:10;;;;;;;81.00;28.02;;;;;;;5.59;100.00;100064.66;5006254;28;20046;-76
2022/11/16 05:34:35;;;;;;;79.72;30.45;;;;;;;5.61;100.00;100060.03;5006028;28;20029;-76
2022/11/16 05:37:01;;;;;;;78.95;28.40;;;;;;;5.69;100.00;100060.97;5000616;28;20030;-76
2022/11/16 05:39:28;;;;;;;72.40;27.60;;;;;;;5.75;100.00;100050.78;4970655;28;20096;-76
2022/11/16 05:41:54;;;;;;;76.18;28.80;;;;;;;5.74;100.00;100051.78;4970612;28;20034;-76
2022/11/16 05:44:20;;;;;;;74.85;30.52;;;;;;;5.72;100.00;100049.25;4986306;28;20124;-76
2022/11/16 05:46:46;;;;;;;73.83;30.17;;;;;;;5.82;100.00;100044.72;4985591;28;20064;-76
2022/11/16 05:49:13;;;;;;;70.18;27.65;;;;;;;5.85;100.00;100048.88;4986347;28;20129;-75
2022/11/16 05:51:41;;;;;;;64.97;27.20;;;;;;;5.73;100.00;100037.66;4986408;28;20034;-75
2022/11/16 05:54:07;;;;;;;74.38;27.25;;;;;;;5.77;100.00;100028.44;4986494;28;20030;-76
2022/11/16 05:56:33;;;;;;;71.88;28.95;;;;;;;5.81;100.00;100029.81;4969839;28;20509;-76
2022/11/16 05:58:59;;;;;;;69.72;30.52;;;;;;;5.83;100.00;100032.31;4970098;28;20391;-77
2022/11/16 06:01:25;;;;;;;78.57;29.88;;;;;;;5.79;100.00;100039.72;4985754;28;20030;-76
2022/11/16 06:03:50;;;;;;;78.13;33.10;;;;;;;5.89;100.00;100035.19;5004690;28;20049;-76
2022/11/16 06:06:17;;;;;;;70.72;26.33;;;;;;;5.82;100.00;100044.72;4989023;28;20164;-75
2022/11/16 06:08:42;;;;;;;70.63;30.83;;;;;;;5.79;100.00;100046.84;5005378;28;20551;-76
2022/11/16 06:11:12;;;;;;;77.63;31.75;;;;;;;5.82;100.00;100047.38;4968133;28;20026;-76
2022/11/16 06:13:38;;;;;;;80.03;32.35;;;;;;;5.78;100.00;100053.94;4984429;28;20057;-76
2022/11/16 06:16:05;;;;;;;78.40;30.40;;;;;;;5.63;100.00;100031.59;4985454;28;20034;-77
2022/11/16 06:18:37;;;;;;;82.53;32.42;;;;;;;5.66;100.00;100045.38;4969443;28;20073;-76
2022/11/16 06:21:03;;;;;;;83.78;31.40;;;;;;;5.67;100.00;100044.41;4969787;28;20053;-76
2022/11/16 06:23:29;;;;;;;76.05;31.20;;;;;;;5.76;100.00;100055.94;4969507;28;20791;-76
2022/11/16 06:25:55;;;;;;;83.22;33.75;;;;;;;5.76;100.00;100048.00;4984888;28;20034;-75
2022/11/16 06:28:24;;;;;;;84.28;31.88;;;;;;;5.66;100.00;100045.38;4985400;28;20415;-75
2022/11/16 06:30:49;;;;;;;80.63;31.00;;;;;;;5.71;100.00;100050.22;4969489;28;20682;-76
2022/11/16 06:33:16;;;;;;;74.23;28.80;;;;;;;5.74;100.00;100035.88;4985714;28;20089;-76
2022/11/16 06:35:41;;;;;;;79.65;33.85;;;;;;;5.58;100.00;100010.03;4985436;28;20026;-75
2022/11/16 06:38:07;;;;;;;79.28;31.17;;;;;;;5.73;100.00;100029.72;4985344;28;20037;-76
2022/11/16 06:40:33;;;;;;;78.68;29.65;;;;;;;5.70;100.00;100008.84;4969162;28;20435;-75
2022/11/16 06:42:59;;;;;;;80.47;29.92;;;;;;;5.76;100.00;100021.50;4969103;28;20069;-76
2022/11/16 06:45:26;;;;;;;79.50;30.23;;;;;;;5.65;100.00;100022.53;4985168;28;20034;-75
2022/11/16 06:47:54;;;;;;;82.57;29.92;;;;;;;5.67;100.00;100025.88;4987737;28;20022;-76
2022/11/16 06:50:20;;;;;;;83.97;30.10;;;;;;;5.52;100.00;100018.56;4989759;28;20398;-74
2022/11/16 06:52:46;;;;;;;94.88;34.08;;;;;;;5.64;100.00;100046.50;4989741;28;20038;-76
2022/11/16 06:55:12;;;;;;;104.85;35.63;;;;;;;5.63;100.00;100044.84;4989016;28;20050;-77
2022/11/16 06:57:38;;;;;;;95.95;33.40;;;;;;;5.65;100.00;100049.00;4989009;28;20108;-76
2022/11/16 07:00:06;;;;;;;100.03;37.00;;;;;;;5.73;100.00;100050.91;4977798;28;20026;-76
2022/11/16 07:02:36;;;;;;;101.20;35.97;;;;;;;5.68;100.00;100048.69;5008950;28;20116;-77
2022/11/16 07:05:03;;;;;;;90.75;32.17;;;;;;;5.76;100.00;100065.66;4976329;28;20059;-76
2022/11/16 07:07:28;;;;;;;113.38;35.92;;;;;;;5.69;100.00;100060.16;4984758;28;20041;-76
2022/11/16 07:09:54;;;;;;;105.03;35.45;;;;;;;5.60;100.00;100051.28;4972788;28;20551;-77
2022/11/16 07:12:20;;;;;;;117.95;37.90;;;;;;;5.70;100.00;100052.03;4989156;28;20118;-76
2022/11/16 07:14:46;;;;;;;103.38;37.70;;;;;;;5.82;100.00;100065.91;4973039;28;20046;-76
2022/11/16 07:17:12;;;;;;;113.28;38.22;;;;;;;5.78;100.00;100053.13;4988914;28;20391;-76
2022/11/16 07:19:38;;;;;;;118.00;36.67;;;;;;;5.83;100.00;100057.00;4973186;28;20107;-76
2022/11/16 07:22:05;;;;;;;111.43;37.22;;;;;;;5.88;100.00;100060.03;4988915;28;20715;-75
2022/11/16 07:24:31;;;;;;;106.82;36.17;;;;;;;5.84;100.00;100052.53;4990395;28;20038;-75
2022/11/16 07:26:57;;;;;;;121.45;37.97;;;;;;;5.86;100.00;100056.69;5009052;28;20398;-76
2022/11/16 07:29:24;;;;;;;119.00;40.08;;;;;;;5.86;100.00;100046.09;4981456;28;20041;-78
2022/11/16 07:32:19;;;;;;;115.68;37.17;;;;;;;5.97;100.00;100054.84;4958407;28;20097;-77
2022/11/16 07:35:13;;;;;;;129.02;40.92;;;;;;;5.88;100.00;100053.91;4929905;29;20050;-76
2022/11/16 07:37:39;;;;;;;123.85;39.70;;;;;;;5.87;100.00;100058.34;4930263;29;20031;-76
2022/11/16 07:40:06;;;;;;;121.03;38.67;;;;;;;5.91;100.00;100054.44;4914438;29;20051;-76
2022/11/16 07:42:32;;;;;;;117.28;38.38;;;;;;;5.96;100.00;100058.47;4929593;29;20044;-76
2022/11/16 07:45:18;;;;;;;130.15;37.67;;;;;;;5.97;100.00;100036.28;4927299;29;20043;-76
2022/11/16 07:47:52;;;;;;;104.53;36.38;;;;;;;5.95;100.00;100038.25;4929353;29;20043;-77
2022/11/16 07:50:23;;;;;;;104.90;33.30;;;;;;;6.02;100.00;100045.47;4929766;29;20031;-76
2022/11/16 07:52:50;;;;;;;98.70;34.80;;;;;;;5.99;100.00;100037.81;4928703;29;20039;-75
2022/11/16 07:55:19;;;;;;;105.18;33.85;;;;;;;6.04;100.00;100032.06;4935992;29;20043;-77
2022/11/16 07:57:47;;;;;;;113.75;35.35;;;;;;;5.97;100.00;100029.19;4933897;29;20036;-77
2022/11/16 08:00:12;;;;;;;105.30;36.33;;;;;;;6.03;100.00;100022.44;4929525;29;20473;-76
2022/11/16 08:02:47;;;;;;;98.90;36.90;;;;;;;6.02;100.00;100018.16;4913267;29;20032;-76
2022/11/16 08:05:16;;;;;;;110.47;35.90;;;;;;;5.96;100.00;100006.31;4929555;29;20517;-76
2022/11/16 08:07:42;;;;;;;121.07;38.00;;;;;;;6.00;100.00;100006.88;4929069;29;20046;-76
2022/11/16 08:10:08;;;;;;;100.35;36.03;;;;;;;6.00;100.00;99998.91;4913317;29;20817;-77
2022/11/16 08:12:33;;;;;;;94.28;31.23;;;;;;;6.13;100.00;99994.06;4980963;28;20057;-76
2022/11/16 08:14:59;;;;;;;101.45;36.03;;;;;;;6.13;100.00;99999.34;4988413;28;20395;-75
2022/11/16 08:17:24;;;;;;;98.30;32.00;;;;;;;6.20;100.00;99999.56;4987992;28;20038;-77
2022/11/16 08:19:52;;;;;;;89.75;32.28;;;;;;;6.26;100.00;100005.09;4988164;28;20293;-75
2022/11/16 08:22:17;;;;;;;92.60;32.47;;;;;;;6.26;100.00;100004.28;4987752;28;20037;-76
2022/11/16 08:24:44;;;;;;;99.72;35.00;;;;;;;6.29;100.00;99983.59;4972025;28;20034;-78
2022/11/16 08:27:10;;;;;;;94.75;34.60;;;;;;;6.24;100.00;99991.16;4987754;28;20053;-76
2022/11/16 08:29:36;;;;;;;100.28;32.95;;;;;;;6.23;100.00;99986.88;4971882;28;20531;-76
2022/11/16 08:32:03;;;;;;;93.47;35.17;;;;;;;6.30;100.00;99989.75;4987727;28;20058;-77
2022/11/16 08:34:32;;;;;;;89.50;31.13;;;;;;;6.28;100.00;99975.81;4987766;28;20069;-76
2022/11/16 08:36:58;;;;;;;85.78;27.88;;;;;;;6.23;100.00;99965.66;4971490;28;20068;-76
2022/11/16 08:39:32;;;;;;;75.93;28.63;;;;;;;6.27;100.00;99969.66;4972347;28;20038;-76
2022/11/16 08:41:58;;;;;;;69.73;27.90;;;;;;;6.33;100.00;99957.63;4987760;28;20089;-76
2022/11/16 08:44:23;;;;;;;70.15;27.23;;;;;;;6.46;100.00;99975.75;4971216;28;20097;-76
2022/11/16 08:46:52;;;;;;;67.78;25.40;;;;;;;6.32;100.00;99963.88;4986628;28;20125;-76
2022/11/16 08:49:27;;;;;;;61.03;23.75;;;;;;;6.29;100.00;99959.72;4987194;28;20034;-76
2022/11/16 08:51:53;;;;;;;62.90;25.95;;;;;;;6.36;100.00;99945.88;4987219;28;20511;-77
2022/11/16 08:54:19;;;;;;;59.43;23.67;;;;;;;6.26;100.00;99940.66;4987147;28;20065;-76
2022/11/16 08:56:44;;;;;;;53.33;21.83;;;;;;;6.38;100.00;99935.94;4986787;28;20113;-78
2022/11/16 08:59:11;;;;;;;55.40;23.25;;;;;;;6.41;100.00;99940.91;4987317;28;20097;-77
2022/11/16 09:01:42;;;;;;;52.72;21.38;;;;;;;6.41;100.00;99938.28;4995526;28;20049;-77
2022/11/16 09:04:07;;;;;;;56.40;23.90;;;;;;;6.44;100.00;99943.25;4992332;28;20049;-76
2022/11/16 09:06:34;;;;;;;67.77;23.87;;;;;;;6.47;100.00;99942.97;4991214;28;20026;-77
2022/11/16 09:09:00;;;;;;;52.67;22.42;;;;;;;6.44;100.00;99952.06;4990331;28;20874;-75
2022/11/16 09:11:25;;;;;;;53.95;22.52;;;;;;;6.45;100.00;99931.69;5004007;28;20034;-75
2022/11/16 09:13:53;;;;;;;55.60;22.23;;;;;;;6.57;100.00;99948.16;4986984;28;20038;-76
2022/11/16 09:16:19;;;;;;;49.03;21.23;;;;;;;6.53;100.00;99932.56;5001181;28;20395;-76
2022/11/16 09:18:46;;;;;;;54.92;23.17;;;;;;;6.49;100.00;99930.38;4988257;28;20165;-76
2022/11/16 09:21:17;;;;;;;50.50;21.15;;;;;;;6.61;100.00;99957.47;4970350;28;20034;-77
2022/11/16 09:23:43;;;;;;;55.53;26.08;;;;;;;6.53;100.00;99952.94;5004479;28;20035;-76
2022/11/16 09:26:08;;;;;;;60.33;25.73;;;;;;;6.33;100.00;99945.19;4987616;28;20045;-76
2022/11/16 09:28:34;;;;;;;55.25;24.10;;;;;;;6.35;100.00;99947.69;4987970;28;20719;-76
2022/11/16 09:31:01;;;;;;;57.33;23.40;;;;;;;6.50;100.00;99970.00;4994091;28;20046;-76
2022/11/16 09:33:29;;;;;;;58.78;25.13;;;;;;;6.53;100.00;99982.09;4986836;28;20061;-76
2022/11/16 09:35:54;;;;;;;49.20;21.35;;;;;;;6.53;100.00;99984.75;4970055;28;20034;-76
2022/11/16 09:38:19;;;;;;;57.83;22.52;;;;;;;6.44;100.00;99981.22;4986752;28;20392;-77
2022/11/16 09:40:46;;;;;;;61.20;24.07;;;;;;;6.39;100.00;99982.66;4986355;28;20034;-78
2022/11/16 09:43:37;;;;;;;56.83;22.60;;;;;;;6.49;100.00;99986.91;4970449;28;20022;-77
2022/11/16 09:46:32;;;;;;;63.75;24.95;;;;;;;6.44;100.00;99990.97;4970006;28;20042;-77
2022/11/16 09:49:01;;;;;;;66.55;24.85;;;;;;;6.48;100.00;99995.00;4986815;28;20030;-76
2022/11/16 09:51:31;;;;;;;57.72;23.80;;;;;;;6.46;100.00;99987.22;4970094;28;20030;-76
2022/11/16 09:54:00;;;;;;;55.70;26.48;;;;;;;6.55;100.00;99982.78;4966620;28;20038;-75
2022/11/16 09:56:28;;;;;;;64.72;26.73;;;;;;;6.60;100.00;99992.94;4985789;28;20034;-76
2022/11/16 09:59:01;;;;;;;60.15;25.55;;;;;;;6.50;100.00;99985.06;4969376;28;20030;-76
2022/11/16 10:01:51;;;;;;;63.30;25.25;;;;;;;6.45;100.00;99974.94;4971545;28;20093;-76
2022/11/16 10:04:29;;;;;;;58.05;25.40;;;;;;;6.53;100.00;99980.31;4985986;28;20488;-76
2022/11/16 10:07:00;;;;;;;55.38;26.40;;;;;;;6.45;100.00;99966.97;4968878;28;20038;-76
2022/11/16 10:09:26;;;;;;;61.10;28.25;;;;;;;6.51;100.00;99976.97;4989216;28;20173;-76
2022/11/16 10:12:02;;;;;;;62.25;25.80;;;;;;;6.50;100.00;99985.06;4994735;28;20565;-77
2022/11/16 10:14:39;;;;;;;56.55;26.23;;;;;;;6.44;100.00;99980.38;4987449;28;20057;-77
2022/11/16 10:17:24;;;;;;;56.25;23.83;;;;;;;6.48;100.00;99966.66;4972740;28;20838;-77
2022/11/16 10:20:15;;;;;;;59.78;26.05;;;;;;;6.46;100.00;99962.50;4977629;28;20491;-77
2022/11/16 10:23:02;;;;;;;59.90;23.73;;;;;;;6.46;100.00;99971.31;5002301;28;20122;-78
2022/11/16 10:25:44;;;;;;;58.67;24.60;;;;;;;6.42;100.00;99966.47;4985846;28;20042;-77
2022/11/16 10:28:54;;;;;;;57.22;25.90;;;;;;;6.31;100.00;99972.84;4985370;28;20137;-77
2022/11/16 10:31:55;;;;;;;58.72;25.85;;;;;;;6.34;100.00;99978.69;4981651;28;20034;-77
2022/11/16 10:34:24;;;;;;;57.65;24.15;;;;;;;6.28;100.00;99976.63;4985739;28;20447;-75
2022/11/16 10:36:53;;;;;;;49.47;22.30;;;;;;;6.30;100.00;99974.66;4985980;28;20027;-77
2022/11/16 10:39:19;;;;;;;63.33;26.65;;;;;;;6.33;100.00;99982.31;4987074;28;20117;-76
2022/11/16 10:41:51;;;;;;;52.28;21.98;;;;;;;6.30;100.00;99979.97;4986417;28;20156;-77
2022/11/16 10:44:38;;;;;;;50.20;23.23;;;;;;;6.38;100.00;99981.00;4985801;28;20048;-76
2022/11/16 10:47:21;;;;;;;60.42;24.73;;;;;;;6.44;100.00;99980.38;4982367;28;20033;-76
2022/11/16 10:50:01;;;;;;;56.08;24.73;;;;;;;6.45;100.00;99979.41;4985678;28;20042;-76
2022/11/16 10:52:26;;;;;;;51.88;21.60;;;;;;;6.39;100.00;99978.22;4986850;28;20476;-77
2022/11/16 10:54:52;;;;;;;49.25;21.60;;;;;;;6.37;100.00;99972.22;4986788;28;20054;-76
2022/11/16 10:57:18;;;;;;;54.20;20.85;;;;;;;6.30;100.00;99982.63;4985304;28;20035;-76
2022/11/16 10:59:54;;;;;;;45.53;20.63;;;;;;;6.47;100.00;99988.03;4985672;28;20042;-75
2022/11/16 11:02:19;;;;;;;43.53;20.02;;;;;;;6.37;100.00;99985.50;4969510;28;20050;-76
2022/11/16 11:05:21;;;;;;;45.27;20.57;;;;;;;6.29;100.00;99975.63;4967724;28;20033;-79
2022/11/16 11:07:58;;;;;;;42.28;19.52;;;;;;;6.41;100.00;99980.69;4992375;28;20038;-75
2022/11/16 11:10:28;;;;;;;42.35;18.95;;;;;;;6.38;100.00;99987.16;4986875;28;20542;-76
2022/11/16 11:13:26;;;;;;;50.88;21.35;;;;;;;6.34;100.00;99988.44;4986695;28;20508;-75
2022/11/16 11:16:11;;;;;;;48.67;20.88;;;;;;;6.28;100.00;99992.53;4910080;29;20055;-77
2022/11/16 11:18:36;;;;;;;43.78;18.48;;;;;;;6.35;100.00;99990.09;4925460;29;20044;-75
2022/11/16 11:21:19;;;;;;;39.73;18.90;;;;;;;6.37;100.00;100005.84;4926178;29;20043;-76
2022/11/16 11:23:50;;;;;;;40.50;18.92;;;;;;;6.36;100.00;99994.41;4925943;29;20036;-77
2022/11/16 11:26:50;;;;;;;37.72;19.20;;;;;;;6.42;100.00;100003.59;4925954;29;20120;-76
2022/11/16 11:29:33;;;;;;;44.55;18.38;;;;;;;6.41;100.00;99996.59;4902488;29;20059;-77
2022/11/16 11:32:12;;;;;;;43.78;19.73;;;;;;;6.36;100.00;99999.72;4913858;29;20035;-75
2022/11/16 11:34:44;;;;;;;39.22;15.55;;;;;;;6.41;100.00;100000.09;4930616;28;20062;-77
2022/11/16 11:37:17;;;;;;;41.53;17.25;;;;;;;6.38;100.00;100007.53;4928856;29;20067;-76
2022/11/16 11:39:43;;;;;;;34.25;16.48;;;;;;;6.40;100.00;100010.84;4929212;29;20043;-76
2022/11/16 11:42:11;;;;;;;38.88;17.52;;;;;;;6.31;100.00;100000.16;4929624;29;20028;-76
2022/11/16 11:44:43;;;;;;;37.22;17.00;;;;;;;6.38;100.00;100010.19;4929417;29;20134;-76
2022/11/16 11:47:35;;;;;;;36.60;17.05;;;;;;;6.26;100.00;99994.50;4921922;29;20044;-76
2022/11/16 11:50:15;;;;;;;33.65;17.85;;;;;;;6.34;100.00;99993.72;4913617;29;20035;-76
2022/11/16 11:53:08;;;;;;;33.13;15.60;;;;;;;6.31;100.00;99989.56;4976775;28;20050;-76
2022/11/16 11:55:34;;;;;;;31.35;14.52;;;;;;;6.32;100.00;99977.13;4988318;28;20045;-75
2022/11/16 11:58:01;;;;;;;40.27;16.63;;;;;;;6.38;100.00;99975.72;4988841;28;20026;-76
2022/11/16 12:00:40;;;;;;;34.70;14.80;;;;;;;6.37;100.00;99968.72;4972154;28;20041;-76
2022/11/16 12:03:25;;;;;;;35.13;15.25;;;;;;;6.44;100.00;99975.94;4981358;28;20049;-77
2022/11/16 12:06:14;;;;;;;31.80;14.43;;;;;;;6.41;100.00;99960.31;4987251;28;20512;-76
2022/11/16 12:08:56;;;;;;;27.00;14.40;;;;;;;6.45;100.00;99963.50;4990062;28;20317;-75
2022/11/16 12:11:46;;;;;;;30.77;13.95;;;;;;;6.49;100.00;99962.22;4993183;28;20116;-76